map of AYP home
AYP - Airport
Location
City:  Ayacucho, Ayacucho, Perú
Name:Coronel FAP Alfredo Mendivil Duarte
ICAO:SPHO
IATA:AYP

Details
Type:Airport (Aerodrome, Airfield)
Use:Public/Civil, Military
Latitude:13°09'17"S (-13.154755)
Longitude:74°12'16"W (-74.204416)
Elevation:9006 ft (2745 m)
Variation:3.96°W (WMM2015 magnetic declination)
-0.18° annual change
Runways:1
Longest:9186 × 148 ft (2800 × 45 m), paved

Time
Time Zone:UTC-5
Local Time:

Weather
METAR:SPHO 142300Z 08004KT 040V120 CAVOK 24/10 Q1020 RMK BKN210 PP000
TAF:SPHO 141700Z 1418/1518 VRB02KT 9999 FEW040 BKN070 TX27/1419Z TN11/1511Z
TEMPO 1418/1423 02010KT FEW040 FEW050TCU SCT080
BECMG 1423/1501 FEW015 BKN080

Related Locations
Nearby:
Farthest:TNX: 12435 mi / 20012 km
Stung Treng [Stung Treng Airport], 19, KH

Find:

   beyond  
but within

Other Information
Maps:
NOTAMs:
Links:
Sources:

  
  • flag of Perú
  • flag of Ayacucho
  

Sectional Chart

Flight Planning
at skyvector.com

Satellite Image

Google Maps Satellite view

 

Copyright © 2004-2018 Karl L. Swartz. All rights reserved.
The Great Circle Mapper name and logo are trademarks of the Great Circle Mapper.
All other trademarks mentioned herein belong to their respective owners.
Please see credits for attibutions and further copyright information.

  Follow gcmap on Facebook Follow gcmap on Twitter Follow gcmap on Google+ GCmap on LinkedIn

hCard Microformat

Geo Microformat